sensor_id;sensor_type;location;lat;lon;timestamp;temperature;humidity
13205;DHT22;6667;52.634;9.226;2023-07-29T07:04:33;19.90;99.90
13205;DHT22;6667;52.634;9.226;2023-07-29T07:07:00;20.00;99.90
13205;DHT22;6667;52.634;9.226;2023-07-29T07:09:27;20.00;99.90
13205;DHT22;6667;52.634;9.226;2023-07-29T07:11:54;20.00;99.90
13205;DHT22;6667;52.634;9.226;2023-07-29T07:14:24;20.00;99.90
13205;DHT22;6667;52.634;9.226;2023-07-29T07:20:27;20.20;99.90
13205;DHT22;6667;52.634;9.226;2023-07-29T07:22:54;20.30;99.90
13205;DHT22;6667;52.634;9.226;2023-07-29T07:25:22;20.40;99.90
13205;DHT22;6667;52.634;9.226;2023-07-29T07:29:09;20.40;99.90
13205;DHT22;6667;52.634;9.226;2023-07-29T07:30:54;20.50;99.90
13205;DHT22;6667;52.634;9.226;2023-07-29T07:33:32;20.70;99.90
13205;DHT22;6667;52.634;9.226;2023-07-29T07:36:16;20.80;99.90
13205;DHT22;6667;52.634;9.226;2023-07-29T07:38:50;20.90;99.90
13205;DHT22;6667;52.634;9.226;2023-07-29T07:41:41;21.00;99.90
13205;DHT22;6667;52.634;9.226;2023-07-29T08:00:49;20.80;99.90
13205;DHT22;6667;52.634;9.226;2023-07-29T08:07:12;20.90;99.90
13205;DHT22;6667;52.634;9.226;2023-07-29T08:13:26;20.90;99.90
13205;DHT22;6667;52.634;9.226;2023-07-29T08:16:12;20.90;99.90
13205;DHT22;6667;52.634;9.226;2023-07-29T08:19:01;20.90;99.90
13205;DHT22;6667;52.634;9.226;2023-07-29T08:21:28;20.90;99.90
13205;DHT22;6667;52.634;9.226;2023-07-29T08:23:57;20.90;99.90
13205;DHT22;6667;52.634;9.226;2023-07-29T08:26:48;20.90;99.90
13205;DHT22;6667;52.634;9.226;2023-07-29T08:29:15;21.10;99.90
13205;DHT22;6667;52.634;9.226;2023-07-29T08:31:43;21.30;99.90
13205;DHT22;6667;52.634;9.226;2023-07-29T08:34:17;21.30;99.90
13205;DHT22;6667;52.634;9.226;2023-07-29T08:36:44;21.30;99.90
13205;DHT22;6667;52.634;9.226;2023-07-29T08:39:11;21.40;99.90
13205;DHT22;6667;52.634;9.226;2023-07-29T08:41:56;21.50;99.90
13205;DHT22;6667;52.634;9.226;2023-07-29T08:44:51;21.50;99.90
13205;DHT22;6667;52.634;9.226;2023-07-29T08:47:58;21.40;99.90
13205;DHT22;6667;52.634;9.226;2023-07-29T08:50:49;21.50;99.90
13205;DHT22;6667;52.634;9.226;2023-07-29T08:53:16;21.40;99.90
13205;DHT22;6667;52.634;9.226;2023-07-29T08:55:44;21.50;99.90
13205;DHT22;6667;52.634;9.226;2023-07-29T08:58:12;21.40;99.90
13205;DHT22;6667;52.634;9.226;2023-07-29T09:00:48;21.50;99.90
13205;DHT22;6667;52.634;9.226;2023-07-29T09:03:16;21.90;99.90
13205;DHT22;6667;52.634;9.226;2023-07-29T09:05:43;22.40;99.90
13205;DHT22;6667;52.634;9.226;2023-07-29T09:08:10;22.90;99.90
13205;DHT22;6667;52.634;9.226;2023-07-29T09:10:37;23.80;99.90
13205;DHT22;6667;52.634;9.226;2023-07-29T09:13:05;23.90;99.90
13205;DHT22;6667;52.634;9.226;2023-07-29T09:15:48;23.70;99.90
13205;DHT22;6667;52.634;9.226;2023-07-29T09:18:20;23.60;99.90
13205;DHT22;6667;52.634;9.226;2023-07-29T09:20:48;23.60;99.90
13205;DHT22;6667;52.634;9.226;2023-07-29T09:23:15;23.40;99.90
13205;DHT22;6667;52.634;9.226;2023-07-29T09:25:43;23.30;99.90
13205;DHT22;6667;52.634;9.226;2023-07-29T09:28:14;23.20;99.90
13205;DHT22;6667;52.634;9.226;2023-07-29T09:30:42;23.00;99.90
13205;DHT22;6667;52.634;9.226;2023-07-29T09:33:10;22.90;99.90
13205;DHT22;6667;52.634;9.226;2023-07-29T09:35:38;22.40;99.90
13205;DHT22;6667;52.634;9.226;2023-07-29T09:38:09;21.80;99.90
13205;DHT22;6667;52.634;9.226;2023-07-29T09:40:41;21.60;99.90
13205;DHT22;6667;52.634;9.226;2023-07-29T09:43:10;21.60;99.90
13205;DHT22;6667;52.634;9.226;2023-07-29T09:45:37;21.60;99.90
13205;DHT22;6667;52.634;9.226;2023-07-29T09:48:19;21.70;99.90
13205;DHT22;6667;52.634;9.226;2023-07-29T09:51:09;21.60;99.90
13205;DHT22;6667;52.634;9.226;2023-07-29T09:53:40;21.40;99.90
13205;DHT22;6667;52.634;9.226;2023-07-29T09:56:07;21.10;99.90
13205;DHT22;6667;52.634;9.226;2023-07-29T09:58:34;21.00;99.90
13205;DHT22;6667;52.634;9.226;2023-07-29T10:01:06;20.90;99.90
13205;DHT22;6667;52.634;9.226;2023-07-29T10:09:32;22.40;99.90
13205;DHT22;6667;52.634;9.226;2023-07-29T10:11:59;23.10;99.90
13205;DHT22;6667;52.634;9.226;2023-07-29T10:14:28;23.10;99.90
13205;DHT22;6667;52.634;9.226;2023-07-29T10:16:55;23.20;99.90
13205;DHT22;6667;52.634;9.226;2023-07-29T10:21:52;23.20;99.90
13205;DHT22;6667;52.634;9.226;2023-07-29T10:24:26;23.10;99.90
13205;DHT22;6667;52.634;9.226;2023-07-29T10:26:59;23.30;99.90
13205;DHT22;6667;52.634;9.226;2023-07-29T10:49:49;25.40;99.90
13205;DHT22;6667;52.634;9.226;2023-07-29T10:52:29;25.10;99.90
13205;DHT22;6667;52.634;9.226;2023-07-29T10:54:56;24.90;99.90
13205;DHT22;6667;52.634;9.226;2023-07-29T10:57:31;24.80;99.90
13205;DHT22;6667;52.634;9.226;2023-07-29T10:59:58;24.30;99.90
13205;DHT22;6667;52.634;9.226;2023-07-29T11:02:29;24.10;99.90
13205;DHT22;6667;52.634;9.226;2023-07-29T11:04:58;24.00;99.90
13205;DHT22;6667;52.634;9.226;2023-07-29T11:07:26;24.40;99.90
13205;DHT22;6667;52.634;9.226;2023-07-29T11:09:56;25.00;99.90
13205;DHT22;6667;52.634;9.226;2023-07-29T11:12:37;25.80;99.90
13205;DHT22;6667;52.634;9.226;2023-07-29T11:15:12;25.80;99.90
13205;DHT22;6667;52.634;9.226;2023-07-29T11:17:41;25.80;99.90
13205;DHT22;6667;52.634;9.226;2023-07-29T11:20:09;25.80;99.90
13205;DHT22;6667;52.634;9.226;2023-07-29T11:22:37;26.00;99.90
13205;DHT22;6667;52.634;9.226;2023-07-29T11:25:04;26.10;99.90
13205;DHT22;6667;52.634;9.226;2023-07-29T11:27:32;26.30;99.90
13205;DHT22;6667;52.634;9.226;2023-07-29T11:30:00;26.70;99.90
13205;DHT22;6667;52.634;9.226;2023-07-29T11:32:27;26.60;99.90
13205;DHT22;6667;52.634;9.226;2023-07-29T11:34:54;26.90;99.90
13205;DHT22;6667;52.634;9.226;2023-07-29T11:37:22;26.90;99.90
13205;DHT22;6667;52.634;9.226;2023-07-29T11:39:49;27.00;99.90
13205;DHT22;6667;52.634;9.226;2023-07-29T11:42:16;26.70;99.90
13205;DHT22;6667;52.634;9.226;2023-07-29T11:44:43;26.80;99.90
13205;DHT22;6667;52.634;9.226;2023-07-29T11:47:11;26.80;99.90
13205;DHT22;6667;52.634;9.226;2023-07-29T11:49:39;26.90;99.90
13205;DHT22;6667;52.634;9.226;2023-07-29T11:52:07;27.10;99.90
13205;DHT22;6667;52.634;9.226;2023-07-29T11:54:36;27.30;99.90
13205;DHT22;6667;52.634;9.226;2023-07-29T11:57:04;27.30;99.90
13205;DHT22;6667;52.634;9.226;2023-07-29T11:59:33;27.70;99.90
13205;DHT22;6667;52.634;9.226;2023-07-29T12:02:00;27.40;99.90
13205;DHT22;6667;52.634;9.226;2023-07-29T12:04:28;27.30;99.90
13205;DHT22;6667;52.634;9.226;2023-07-29T12:06:55;27.40;99.90
13205;DHT22;6667;52.634;9.226;2023-07-29T12:09:22;27.20;99.90
13205;DHT22;6667;52.634;9.226;2023-07-29T12:11:50;27.10;99.90
13205;DHT22;6667;52.634;9.226;2023-07-29T12:14:17;27.40;99.90
13205;DHT22;6667;52.634;9.226;2023-07-29T12:16:44;27.40;99.90
13205;DHT22;6667;52.634;9.226;2023-07-29T12:19:12;27.10;99.90
13205;DHT22;6667;52.634;9.226;2023-07-29T12:21:40;27.20;99.90
13205;DHT22;6667;52.634;9.226;2023-07-29T12:24:08;27.30;99.90
13205;DHT22;6667;52.634;9.226;2023-07-29T12:26:36;27.60;99.90
13205;DHT22;6667;52.634;9.226;2023-07-29T12:29:12;27.70;99.90
13205;DHT22;6667;52.634;9.226;2023-07-29T12:31:39;27.90;99.90
13205;DHT22;6667;52.634;9.226;2023-07-29T12:34:06;27.80;99.90
13205;DHT22;6667;52.634;9.226;2023-07-29T12:36:42;28.00;99.90
13205;DHT22;6667;52.634;9.226;2023-07-29T12:39:16;27.40;99.90
13205;DHT22;6667;52.634;9.226;2023-07-29T12:41:43;27.30;99.90
13205;DHT22;6667;52.634;9.226;2023-07-29T12:44:11;27.30;99.90
13205;DHT22;6667;52.634;9.226;2023-07-29T12:46:38;27.20;99.90
13205;DHT22;6667;52.634;9.226;2023-07-29T12:49:05;27.30;99.90
13205;DHT22;6667;52.634;9.226;2023-07-29T12:51:32;27.50;99.90
13205;DHT22;6667;52.634;9.226;2023-07-29T12:53:59;27.50;99.90
13205;DHT22;6667;52.634;9.226;2023-07-29T12:56:25;27.50;99.90
13205;DHT22;6667;52.634;9.226;2023-07-29T12:58:52;27.20;99.90
13205;DHT22;6667;52.634;9.226;2023-07-29T13:01:20;27.20;99.90
13205;DHT22;6667;52.634;9.226;2023-07-29T13:03:48;27.40;99.90
13205;DHT22;6667;52.634;9.226;2023-07-29T13:06:15;27.50;99.90
13205;DHT22;6667;52.634;9.226;2023-07-29T13:08:42;27.90;99.90
13205;DHT22;6667;52.634;9.226;2023-07-29T13:11:09;27.60;99.90
13205;DHT22;6667;52.634;9.226;2023-07-29T13:13:36;27.40;99.90
13205;DHT22;6667;52.634;9.226;2023-07-29T13:16:03;27.50;99.90
13205;DHT22;6667;52.634;9.226;2023-07-29T13:18:32;27.50;99.90
13205;DHT22;6667;52.634;9.226;2023-07-29T13:20:59;27.60;99.90
13205;DHT22;6667;52.634;9.226;2023-07-29T13:23:26;27.60;99.90
13205;DHT22;6667;52.634;9.226;2023-07-29T13:25:53;27.60;99.90
13205;DHT22;6667;52.634;9.226;2023-07-29T13:28:20;27.90;99.90
13205;DHT22;6667;52.634;9.226;2023-07-29T13:30:46;27.90;99.90
13205;DHT22;6667;52.634;9.226;2023-07-29T13:33:13;28.10;99.90
13205;DHT22;6667;52.634;9.226;2023-07-29T13:35:41;28.00;99.90
13205;DHT22;6667;52.634;9.226;2023-07-29T13:38:08;28.30;99.90
13205;DHT22;6667;52.634;9.226;2023-07-29T13:40:36;28.00;99.90
13205;DHT22;6667;52.634;9.226;2023-07-29T13:43:03;27.60;99.90
13205;DHT22;6667;52.634;9.226;2023-07-29T13:45:30;27.40;99.90
13205;DHT22;6667;52.634;9.226;2023-07-29T13:47:56;27.30;99.90
13205;DHT22;6667;52.634;9.226;2023-07-29T13:50:23;27.00;99.90
13205;DHT22;6667;52.634;9.226;2023-07-29T13:52:51;27.30;99.90
13205;DHT22;6667;52.634;9.226;2023-07-29T13:58:18;27.50;99.90
13205;DHT22;6667;52.634;9.226;2023-07-29T14:00:45;27.50;99.90
13205;DHT22;6667;52.634;9.226;2023-07-29T14:03:19;27.60;99.90
13205;DHT22;6667;52.634;9.226;2023-07-29T14:06:00;27.50;99.90
13205;DHT22;6667;52.634;9.226;2023-07-29T14:08:28;27.30;99.90
13205;DHT22;6667;52.634;9.226;2023-07-29T14:10:54;27.20;99.90
13205;DHT22;6667;52.634;9.226;2023-07-29T14:13:21;26.80;99.90
13205;DHT22;6667;52.634;9.226;2023-07-29T14:15:48;26.80;99.90
13205;DHT22;6667;52.634;9.226;2023-07-29T14:18:15;26.80;99.90
13205;DHT22;6667;52.634;9.226;2023-07-29T14:20:41;26.60;99.90
13205;DHT22;6667;52.634;9.226;2023-07-29T14:23:08;26.80;99.90
13205;DHT22;6667;52.634;9.226;2023-07-29T14:25:36;26.70;99.90
13205;DHT22;6667;52.634;9.226;2023-07-29T14:28:03;26.80;99.90
13205;DHT22;6667;52.634;9.226;2023-07-29T14:30:30;26.60;99.90
13205;DHT22;6667;52.634;9.226;2023-07-29T14:32:57;26.90;99.90
13205;DHT22;6667;52.634;9.226;2023-07-29T14:35:23;26.70;99.90
13205;DHT22;6667;52.634;9.226;2023-07-29T14:37:50;26.70;99.90
13205;DHT22;6667;52.634;9.226;2023-07-29T14:40:17;26.50;99.90
13205;DHT22;6667;52.634;9.226;2023-07-29T14:42:45;26.20;99.90
13205;DHT22;6667;52.634;9.226;2023-07-29T14:45:12;26.10;99.90
13205;DHT22;6667;52.634;9.226;2023-07-29T14:47:38;26.20;99.90
13205;DHT22;6667;52.634;9.226;2023-07-29T14:50:05;26.10;99.90
13205;DHT22;6667;52.634;9.226;2023-07-29T14:52:32;26.30;99.90
13205;DHT22;6667;52.634;9.226;2023-07-29T14:54:59;26.30;99.90
13205;DHT22;6667;52.634;9.226;2023-07-29T14:57:26;26.10;99.90
13205;DHT22;6667;52.634;9.226;2023-07-29T14:59:54;26.10;99.90
13205;DHT22;6667;52.634;9.226;2023-07-29T15:02:20;26.20;99.90
13205;DHT22;6667;52.634;9.226;2023-07-29T15:04:48;26.10;99.90
13205;DHT22;6667;52.634;9.226;2023-07-29T15:07:14;26.00;99.90
13205;DHT22;6667;52.634;9.226;2023-07-29T15:09:41;25.90;99.90
13205;DHT22;6667;52.634;9.226;2023-07-29T15:12:08;26.00;99.90
13205;DHT22;6667;52.634;9.226;2023-07-29T15:14:35;26.30;99.90
13205;DHT22;6667;52.634;9.226;2023-07-29T15:17:03;26.50;99.90
13205;DHT22;6667;52.634;9.226;2023-07-29T15:19:30;26.50;99.90
13205;DHT22;6667;52.634;9.226;2023-07-29T15:21:56;26.60;99.90
13205;DHT22;6667;52.634;9.226;2023-07-29T15:24:23;26.60;99.90
13205;DHT22;6667;52.634;9.226;2023-07-29T15:26:50;26.00;99.90
13205;DHT22;6667;52.634;9.226;2023-07-29T15:29:16;25.60;99.90
13205;DHT22;6667;52.634;9.226;2023-07-29T15:31:43;25.50;99.90
13205;DHT22;6667;52.634;9.226;2023-07-29T15:34:11;25.40;99.90
13205;DHT22;6667;52.634;9.226;2023-07-29T15:36:38;25.30;99.90
13205;DHT22;6667;52.634;9.226;2023-07-29T15:39:05;25.30;99.90
13205;DHT22;6667;52.634;9.226;2023-07-29T15:41:32;25.30;99.90
13205;DHT22;6667;52.634;9.226;2023-07-29T15:43:59;25.10;99.90
13205;DHT22;6667;52.634;9.226;2023-07-29T15:46:26;25.20;99.90
13205;DHT22;6667;52.634;9.226;2023-07-29T15:48:52;25.20;99.90
13205;DHT22;6667;52.634;9.226;2023-07-29T15:51:22;25.30;99.90
13205;DHT22;6667;52.634;9.226;2023-07-29T15:53:48;25.00;99.90
13205;DHT22;6667;52.634;9.226;2023-07-29T15:56:15;24.90;99.90
13205;DHT22;6667;52.634;9.226;2023-07-29T15:58:42;24.80;99.90
13205;DHT22;6667;52.634;9.226;2023-07-29T16:01:09;24.70;99.90
13205;DHT22;6667;52.634;9.226;2023-07-29T16:03:35;24.60;99.90
13205;DHT22;6667;52.634;9.226;2023-07-29T16:06:02;24.40;99.90
13205;DHT22;6667;52.634;9.226;2023-07-29T16:08:31;24.30;99.90
13205;DHT22;6667;52.634;9.226;2023-07-29T16:10:57;24.30;99.90
13205;DHT22;6667;52.634;9.226;2023-07-29T16:13:24;24.30;99.90
13205;DHT22;6667;52.634;9.226;2023-07-29T16:15:51;24.20;99.90
13205;DHT22;6667;52.634;9.226;2023-07-29T16:18:18;24.30;99.90
13205;DHT22;6667;52.634;9.226;2023-07-29T16:20:44;24.30;99.90
13205;DHT22;6667;52.634;9.226;2023-07-29T16:23:12;24.40;99.90
13205;DHT22;6667;52.634;9.226;2023-07-29T16:25:40;24.60;99.90
13205;DHT22;6667;52.634;9.226;2023-07-29T16:28:07;24.70;99.90
13205;DHT22;6667;52.634;9.226;2023-07-29T16:30:33;24.70;99.90
13205;DHT22;6667;52.634;9.226;2023-07-29T16:33:01;24.60;99.90
13205;DHT22;6667;52.634;9.226;2023-07-29T16:35:28;24.50;99.90
13205;DHT22;6667;52.634;9.226;2023-07-29T16:37:54;24.40;99.90
13205;DHT22;6667;52.634;9.226;2023-07-29T16:40:23;24.40;99.90
13205;DHT22;6667;52.634;9.226;2023-07-29T16:42:51;24.30;99.90
13205;DHT22;6667;52.634;9.226;2023-07-29T16:45:17;24.20;99.90
13205;DHT22;6667;52.634;9.226;2023-07-29T16:47:44;24.10;99.90
13205;DHT22;6667;52.634;9.226;2023-07-29T16:50:11;24.10;99.90
13205;DHT22;6667;52.634;9.226;2023-07-29T16:52:38;24.00;99.90
13205;DHT22;6667;52.634;9.226;2023-07-29T16:55:07;24.00;99.90
13205;DHT22;6667;52.634;9.226;2023-07-29T16:57:34;24.00;99.90
13205;DHT22;6667;52.634;9.226;2023-07-29T17:00:02;24.00;99.90
13205;DHT22;6667;52.634;9.226;2023-07-29T17:02:29;24.00;99.90
13205;DHT22;6667;52.634;9.226;2023-07-29T17:04:56;24.00;99.90
13205;DHT22;6667;52.634;9.226;2023-07-29T17:07:26;24.00;99.90
13205;DHT22;6667;52.634;9.226;2023-07-29T17:09:53;23.90;99.90
13205;DHT22;6667;52.634;9.226;2023-07-29T17:12:20;23.80;99.90
13205;DHT22;6667;52.634;9.226;2023-07-29T17:14:46;23.80;99.90
13205;DHT22;6667;52.634;9.226;2023-07-29T17:17:16;23.80;99.90
13205;DHT22;6667;52.634;9.226;2023-07-29T17:19:42;23.60;99.90
13205;DHT22;6667;52.634;9.226;2023-07-29T17:22:10;23.60;99.90
13205;DHT22;6667;52.634;9.226;2023-07-29T17:24:36;23.60;99.90
13205;DHT22;6667;52.634;9.226;2023-07-29T17:27:04;23.60;99.90
13205;DHT22;6667;52.634;9.226;2023-07-29T17:29:31;23.60;99.90
13205;DHT22;6667;52.634;9.226;2023-07-29T17:31:58;23.50;99.90
13205;DHT22;6667;52.634;9.226;2023-07-29T17:34:26;23.40;99.90
13205;DHT22;6667;52.634;9.226;2023-07-29T17:36:52;23.40;99.90
13205;DHT22;6667;52.634;9.226;2023-07-29T17:39:19;23.30;99.90
13205;DHT22;6667;52.634;9.226;2023-07-29T17:44:35;23.20;99.90
13205;DHT22;6667;52.634;9.226;2023-07-29T17:50:46;23.10;99.90
13205;DHT22;6667;52.634;9.226;2023-07-29T17:53:42;23.00;99.90
13205;DHT22;6667;52.634;9.226;2023-07-29T17:56:45;22.90;99.90
13205;DHT22;6667;52.634;9.226;2023-07-29T17:59:32;22.80;99.90
13205;DHT22;6667;52.634;9.226;2023-07-29T18:02:23;22.70;99.90
13205;DHT22;6667;52.634;9.226;2023-07-29T18:05:01;22.60;99.90
13205;DHT22;6667;52.634;9.226;2023-07-29T18:07:55;22.60;99.90
13205;DHT22;6667;52.634;9.226;2023-07-29T18:11:04;22.50;99.90
13205;DHT22;6667;52.634;9.226;2023-07-29T18:14:16;22.50;99.90
13205;DHT22;6667;52.634;9.226;2023-07-29T18:17:49;22.40;99.90
13205;DHT22;6667;52.634;9.226;2023-07-29T18:21:37;22.30;99.90
13205;DHT22;6667;52.634;9.226;2023-07-29T18:30:14;22.00;99.90
13205;DHT22;6667;52.634;9.226;2023-07-29T18:33:22;22.00;99.90
13205;DHT22;6667;52.634;9.226;2023-07-29T18:36:19;21.90;99.90
13205;DHT22;6667;52.634;9.226;2023-07-29T18:38:50;21.80;99.90
13205;DHT22;6667;52.634;9.226;2023-07-29T18:41:25;21.80;99.90
13205;DHT22;6667;52.634;9.226;2023-07-29T18:44:02;21.60;99.90
13205;DHT22;6667;52.634;9.226;2023-07-29T18:46:43;21.60;99.90
13205;DHT22;6667;52.634;9.226;2023-07-29T18:49:17;21.60;99.90
13205;DHT22;6667;52.634;9.226;2023-07-29T18:51:50;21.50;99.90
13205;DHT22;6667;52.634;9.226;2023-07-29T18:54:20;21.40;99.90
13205;DHT22;6667;52.634;9.226;2023-07-29T18:56:55;21.40;99.90
13205;DHT22;6667;52.634;9.226;2023-07-29T18:59:37;21.20;99.90
13205;DHT22;6667;52.634;9.226;2023-07-29T19:02:08;21.20;99.90
13205;DHT22;6667;52.634;9.226;2023-07-29T19:04:38;21.10;99.90
13205;DHT22;6667;52.634;9.226;2023-07-29T19:07:11;21.20;99.90
13205;DHT22;6667;52.634;9.226;2023-07-29T19:09:45;21.10;99.90
13205;DHT22;6667;52.634;9.226;2023-07-29T19:12:16;21.20;99.90
13205;DHT22;6667;52.634;9.226;2023-07-29T19:14:51;21.10;99.90
13205;DHT22;6667;52.634;9.226;2023-07-29T19:17:23;21.00;99.90
13205;DHT22;6667;52.634;9.226;2023-07-29T19:19:54;20.90;99.90
13205;DHT22;6667;52.634;9.226;2023-07-29T19:22:23;20.90;99.90
13205;DHT22;6667;52.634;9.226;2023-07-29T19:24:52;20.90;99.90
13205;DHT22;6667;52.634;9.226;2023-07-29T19:27:19;20.90;99.90
13205;DHT22;6667;52.634;9.226;2023-07-29T19:29:46;20.80;99.90
13205;DHT22;6667;52.634;9.226;2023-07-29T19:32:14;20.90;99.90
13205;DHT22;6667;52.634;9.226;2023-07-29T19:34:43;20.90;99.90
13205;DHT22;6667;52.634;9.226;2023-07-29T19:37:19;20.80;99.90
13205;DHT22;6667;52.634;9.226;2023-07-29T19:39:46;20.80;99.90
13205;DHT22;6667;52.634;9.226;2023-07-29T19:42:14;20.80;99.90
13205;DHT22;6667;52.634;9.226;2023-07-29T19:44:42;20.70;99.90
13205;DHT22;6667;52.634;9.226;2023-07-29T19:47:10;20.70;99.90
13205;DHT22;6667;52.634;9.226;2023-07-29T19:49:38;20.70;99.90
13205;DHT22;6667;52.634;9.226;2023-07-29T19:52:12;20.60;99.90
13205;DHT22;6667;52.634;9.226;2023-07-29T19:54:44;20.40;99.90
13205;DHT22;6667;52.634;9.226;2023-07-29T19:57:14;20.40;99.90
13205;DHT22;6667;52.634;9.226;2023-07-29T19:59:42;20.40;99.90
13205;DHT22;6667;52.634;9.226;2023-07-29T20:02:10;20.30;99.90
13205;DHT22;6667;52.634;9.226;2023-07-29T20:04:39;20.10;99.90
13205;DHT22;6667;52.634;9.226;2023-07-29T20:07:28;20.00;99.90
13205;DHT22;6667;52.634;9.226;2023-07-29T20:10:01;19.90;99.90
13205;DHT22;6667;52.634;9.226;2023-07-29T20:12:29;19.90;99.90
13205;DHT22;6667;52.634;9.226;2023-07-29T20:14:57;19.90;99.90
13205;DHT22;6667;52.634;9.226;2023-07-29T20:17:32;19.80;99.90
13205;DHT22;6667;52.634;9.226;2023-07-29T20:20:00;19.70;99.90
13205;DHT22;6667;52.634;9.226;2023-07-29T20:22:29;19.60;99.90
13205;DHT22;6667;52.634;9.226;2023-07-29T20:24:57;19.40;99.90
13205;DHT22;6667;52.634;9.226;2023-07-29T20:27:24;19.40;99.90
13205;DHT22;6667;52.634;9.226;2023-07-29T20:29:52;19.30;99.90
13205;DHT22;6667;52.634;9.226;2023-07-29T20:32:19;19.20;99.90
13205;DHT22;6667;52.634;9.226;2023-07-29T20:34:51;19.10;99.90
13205;DHT22;6667;52.634;9.226;2023-07-29T20:37:19;19.00;99.90
13205;DHT22;6667;52.634;9.226;2023-07-29T20:39:47;19.00;99.90
13205;DHT22;6667;52.634;9.226;2023-07-29T20:42:15;19.00;99.90
13205;DHT22;6667;52.634;9.226;2023-07-29T20:44:45;19.00;99.90
13205;DHT22;6667;52.634;9.226;2023-07-29T20:47:12;18.90;99.90
13205;DHT22;6667;52.634;9.226;2023-07-29T20:49:43;18.90;99.90
13205;DHT22;6667;52.634;9.226;2023-07-29T20:52:10;18.90;99.90
13205;DHT22;6667;52.634;9.226;2023-07-29T20:54:38;18.80;99.90
13205;DHT22;6667;52.634;9.226;2023-07-29T20:57:13;18.80;99.90
13205;DHT22;6667;52.634;9.226;2023-07-29T20:59:48;18.70;99.90
13205;DHT22;6667;52.634;9.226;2023-07-29T21:02:15;18.60;99.90
13205;DHT22;6667;52.634;9.226;2023-07-29T21:04:43;18.50;99.90
13205;DHT22;6667;52.634;9.226;2023-07-29T21:07:11;18.40;99.90
13205;DHT22;6667;52.634;9.226;2023-07-29T21:09:40;18.40;99.90
13205;DHT22;6667;52.634;9.226;2023-07-29T21:12:11;18.50;99.90
13205;DHT22;6667;52.634;9.226;2023-07-29T21:14:40;18.40;99.90
13205;DHT22;6667;52.634;9.226;2023-07-29T21:17:07;18.40;99.90
13205;DHT22;6667;52.634;9.226;2023-07-29T21:19:34;18.20;99.90
13205;DHT22;6667;52.634;9.226;2023-07-29T21:22:02;18.20;99.90
13205;DHT22;6667;52.634;9.226;2023-07-29T21:24:30;18.20;99.90
13205;DHT22;6667;52.634;9.226;2023-07-29T21:26:58;18.10;99.90
13205;DHT22;6667;52.634;9.226;2023-07-29T21:29:28;18.00;99.90
13205;DHT22;6667;52.634;9.226;2023-07-29T21:31:57;17.90;99.90
13205;DHT22;6667;52.634;9.226;2023-07-29T21:34:25;17.90;99.90
13205;DHT22;6667;52.634;9.226;2023-07-29T21:36:58;17.80;99.90
13205;DHT22;6667;52.634;9.226;2023-07-29T21:39:45;17.70;99.90
13205;DHT22;6667;52.634;9.226;2023-07-29T21:42:33;17.70;99.90
13205;DHT22;6667;52.634;9.226;2023-07-29T21:45:47;17.70;99.90
13205;DHT22;6667;52.634;9.226;2023-07-29T21:48:29;17.70;99.90
13205;DHT22;6667;52.634;9.226;2023-07-29T21:51:13;17.70;99.90
13205;DHT22;6667;52.634;9.226;2023-07-29T21:53:48;17.70;99.90
13205;DHT22;6667;52.634;9.226;2023-07-29T21:56:25;17.70;99.90
13205;DHT22;6667;52.634;9.226;2023-07-29T21:59:04;17.70;99.90
13205;DHT22;6667;52.634;9.226;2023-07-29T22:01:49;17.60;99.90
13205;DHT22;6667;52.634;9.226;2023-07-29T22:04:33;17.50;99.90
13205;DHT22;6667;52.634;9.226;2023-07-29T22:07:07;17.60;99.90
13205;DHT22;6667;52.634;9.226;2023-07-29T22:09:39;17.60;99.90
13205;DHT22;6667;52.634;9.226;2023-07-29T22:12:11;17.60;99.90
13205;DHT22;6667;52.634;9.226;2023-07-29T22:14:48;17.60;99.90
13205;DHT22;6667;52.634;9.226;2023-07-29T22:17:21;17.60;99.90
13205;DHT22;6667;52.634;9.226;2023-07-29T22:19:50;17.60;99.90
13205;DHT22;6667;52.634;9.226;2023-07-29T22:22:20;17.60;99.90
13205;DHT22;6667;52.634;9.226;2023-07-29T22:24:54;17.60;99.90
13205;DHT22;6667;52.634;9.226;2023-07-29T22:27:30;17.60;99.90
13205;DHT22;6667;52.634;9.226;2023-07-29T22:30:04;17.60;99.90
13205;DHT22;6667;52.634;9.226;2023-07-29T22:32:44;17.70;99.90
13205;DHT22;6667;52.634;9.226;2023-07-29T22:35:17;17.60;99.90
13205;DHT22;6667;52.634;9.226;2023-07-29T22:37:53;17.60;99.90
13205;DHT22;6667;52.634;9.226;2023-07-29T22:42:57;17.50;99.90
